Time;durP1;ratioP1;P1;durP2;ratioP2;P2;SDS_P1;SDS_P2;PMS_P1;PMS_P2;Temp;Humidity;BMP_temperature;BMP_pressure;BME280_temperature;BME280_humidity;BME280_pressure;Samples;Min_cycle;Max_cycle;Signal;HPM_P1;HPM_P2
2021/10/19 00:00:05;;;;;;;24.67;14.35;;;;;;;;;;5082130;28;20079;-79
2021/10/19 00:02:32;;;;;;;24.77;13.23;;;;;;;;;;5082232;28;20060;-80
2021/10/19 00:05:03;;;;;;;27.45;14.63;;;;;;;;;;5082645;28;20147;-80
2021/10/19 00:07:31;;;;;;;21.70;13.52;;;;;;;;;;5082521;28;20067;-79
2021/10/19 00:09:57;;;;;;;25.08;13.63;;;;;;;;;;5078285;28;20063;-79
2021/10/19 00:12:25;;;;;;;20.95;13.57;;;;;;;;;;5079158;28;20053;-79
2021/10/19 00:14:58;;;;;;;21.33;13.00;;;;;;;;;;5078138;28;20052;-80
2021/10/19 00:17:25;;;;;;;22.45;14.15;;;;;;;;;;5076412;28;20382;-80
2021/10/19 00:19:52;;;;;;;22.20;13.48;;;;;;;;;;5075169;28;20056;-79
2021/10/19 00:22:18;;;;;;;22.05;12.63;;;;;;;;;;5076291;28;20143;-79
2021/10/19 00:24:45;;;;;;;22.25;13.15;;;;;;;;;;5075986;28;20052;-79
2021/10/19 00:27:19;;;;;;;21.98;13.52;;;;;;;;;;5078761;28;20052;-80
2021/10/19 00:29:46;;;;;;;20.67;12.68;;;;;;;;;;5059591;28;20106;-79
2021/10/19 00:32:14;;;;;;;25.23;13.68;;;;;;;;;;5075379;28;20060;-80
2021/10/19 00:34:40;;;;;;;25.75;13.80;;;;;;;;;;5076495;28;20060;-79
2021/10/19 00:37:07;;;;;;;28.25;14.75;;;;;;;;;;5076876;28;20066;-79
2021/10/19 00:39:37;;;;;;;30.83;15.35;;;;;;;;;;5061149;28;20557;-79
2021/10/19 00:42:04;;;;;;;27.75;14.70;;;;;;;;;;5056056;28;20053;-78
2021/10/19 00:44:30;;;;;;;25.52;14.18;;;;;;;;;;5056121;28;20067;-79
2021/10/19 00:46:58;;;;;;;24.65;13.27;;;;;;;;;;5055716;28;20075;-79
2021/10/19 00:49:25;;;;;;;20.88;13.15;;;;;;;;;;5055914;28;20057;-79
2021/10/19 00:51:52;;;;;;;22.23;13.65;;;;;;;;;;5055232;28;20079;-79
2021/10/19 00:54:22;;;;;;;25.38;14.52;;;;;;;;;;5055743;28;20057;-80
2021/10/19 00:56:57;;;;;;;26.83;14.95;;;;;;;;;;5058080;28;20053;-80
2021/10/19 00:59:44;;;;;;;26.88;14.45;;;;;;;;;;5079591;28;20048;-80
2021/10/19 01:02:14;;;;;;;31.63;15.35;;;;;;;;;;5063267;28;20068;-79
2021/10/19 01:04:45;;;;;;;30.70;14.75;;;;;;;;;;5061964;28;20052;-79
2021/10/19 01:07:13;;;;;;;28.02;14.50;;;;;;;;;;5059851;28;20155;-80
2021/10/19 01:09:39;;;;;;;33.47;15.43;;;;;;;;;;5091528;28;20060;-79
2021/10/19 01:12:07;;;;;;;25.35;14.07;;;;;;;;;;5087887;28;20126;-79
2021/10/19 01:14:34;;;;;;;22.50;13.40;;;;;;;;;;5054654;28;20072;-79
2021/10/19 01:17:01;;;;;;;23.17;13.98;;;;;;;;;;5057218;28;20056;-79
2021/10/19 01:19:28;;;;;;;26.40;14.93;;;;;;;;;;5056957;28;20319;-80
2021/10/19 01:21:56;;;;;;;26.23;14.55;;;;;;;;;;5073656;28;20114;-80
2021/10/19 01:24:24;;;;;;;24.83;14.73;;;;;;;;;;5075117;28;20057;-79
2021/10/19 01:26:51;;;;;;;22.67;13.27;;;;;;;;;;5055368;28;20208;-80
2021/10/19 01:29:17;;;;;;;25.52;15.38;;;;;;;;;;5074847;28;20058;-79
2021/10/19 01:31:48;;;;;;;22.30;14.10;;;;;;;;;;5072806;28;20041;-79
2021/10/19 01:34:15;;;;;;;29.23;15.02;;;;;;;;;;5073623;28;20040;-80
2021/10/19 01:36:48;;;;;;;24.85;14.80;;;;;;;;;;5064114;28;20049;-81
2021/10/19 01:39:14;;;;;;;24.42;14.63;;;;;;;;;;5059875;28;20045;-80
2021/10/19 01:41:42;;;;;;;24.10;14.32;;;;;;;;;;5077178;28;20060;-79
2021/10/19 01:44:09;;;;;;;24.73;15.13;;;;;;;;;;5092023;28;20040;-80
2021/10/19 01:46:36;;;;;;;26.58;15.70;;;;;;;;;;5088811;28;20051;-80
2021/10/19 01:49:04;;;;;;;27.30;14.60;;;;;;;;;;5079647;28;20074;-80
2021/10/19 01:51:31;;;;;;;29.63;16.00;;;;;;;;;;5044513;28;20065;-80
2021/10/19 01:53:57;;;;;;;28.75;16.02;;;;;;;;;;5061641;28;20309;-81
2021/10/19 01:56:24;;;;;;;24.02;14.55;;;;;;;;;;5078016;28;20063;-80
2021/10/19 01:58:51;;;;;;;23.80;14.88;;;;;;;;;;5076960;28;20063;-80
2021/10/19 02:01:18;;;;;;;30.35;15.73;;;;;;;;;;5058600;28;20060;-79
2021/10/19 02:03:47;;;;;;;24.85;13.80;;;;;;;;;;5059770;28;20099;-79
2021/10/19 02:06:17;;;;;;;29.25;15.57;;;;;;;;;;5079432;28;20059;-79
2021/10/19 02:08:44;;;;;;;22.88;14.38;;;;;;;;;;5062093;28;20122;-81
2021/10/19 02:11:11;;;;;;;25.75;14.07;;;;;;;;;;5079753;28;20150;-80
2021/10/19 02:13:38;;;;;;;28.13;14.88;;;;;;;;;;5079848;28;20056;-80
2021/10/19 02:16:08;;;;;;;28.23;15.35;;;;;;;;;;5079337;28;20139;-80
2021/10/19 02:18:35;;;;;;;22.17;14.45;;;;;;;;;;5079200;28;20052;-80
2021/10/19 02:21:05;;;;;;;28.10;15.80;;;;;;;;;;5079928;28;20060;-80
2021/10/19 02:23:32;;;;;;;29.98;16.08;;;;;;;;;;5080481;28;20463;-81
2021/10/19 02:26:00;;;;;;;25.42;14.73;;;;;;;;;;5063158;28;20342;-80
2021/10/19 02:28:26;;;;;;;27.20;15.05;;;;;;;;;;5080622;28;20322;-80
2021/10/19 02:30:53;;;;;;;28.67;15.15;;;;;;;;;;5077950;28;20057;-80
2021/10/19 02:33:19;;;;;;;31.13;16.33;;;;;;;;;;5060855;28;20059;-80
2021/10/19 02:35:47;;;;;;;28.20;15.02;;;;;;;;;;5063047;28;20056;-81
2021/10/19 02:38:14;;;;;;;29.63;16.23;;;;;;;;;;5078238;28;20078;-80
2021/10/19 02:40:46;;;;;;;25.38;15.30;;;;;;;;;;5078152;28;20080;-80
2021/10/19 02:43:14;;;;;;;28.13;16.45;;;;;;;;;;5081011;28;20131;-80
2021/10/19 02:45:41;;;;;;;28.88;15.93;;;;;;;;;;5079375;28;20049;-80
2021/10/19 02:48:08;;;;;;;28.02;15.95;;;;;;;;;;5062985;28;20053;-79
2021/10/19 02:50:35;;;;;;;32.63;16.42;;;;;;;;;;5079521;28;20053;-79
2021/10/19 02:53:01;;;;;;;26.05;15.82;;;;;;;;;;5079776;28;20052;-79
2021/10/19 02:55:28;;;;;;;27.98;16.63;;;;;;;;;;5062778;28;20056;-79
2021/10/19 02:57:55;;;;;;;29.65;15.32;;;;;;;;;;5075678;28;20045;-80
2021/10/19 03:00:22;;;;;;;28.55;17.10;;;;;;;;;;5059183;28;20143;-79
2021/10/19 03:02:48;;;;;;;34.13;17.95;;;;;;;;;;5058910;28;20251;-79
2021/10/19 03:05:15;;;;;;;33.10;18.55;;;;;;;;;;5059669;28;20053;-79
2021/10/19 03:07:42;;;;;;;35.13;17.70;;;;;;;;;;5074839;28;20413;-79
2021/10/19 03:10:09;;;;;;;38.58;17.30;;;;;;;;;;5058952;28;20116;-79
2021/10/19 03:12:36;;;;;;;27.52;17.13;;;;;;;;;;5057428;28;20122;-78
2021/10/19 03:15:03;;;;;;;30.50;16.42;;;;;;;;;;5074172;28;20483;-79
2021/10/19 03:17:30;;;;;;;33.53;17.52;;;;;;;;;;5056914;28;20059;-80
2021/10/19 03:19:57;;;;;;;35.22;15.68;;;;;;;;;;5074688;28;20057;-79
2021/10/19 03:22:23;;;;;;;29.63;17.02;;;;;;;;;;5074167;28;20049;-79
2021/10/19 03:24:52;;;;;;;29.52;18.42;;;;;;;;;;5058603;28;20053;-79
2021/10/19 03:27:19;;;;;;;31.38;16.60;;;;;;;;;;5074014;28;20389;-79
2021/10/19 03:29:46;;;;;;;34.83;18.42;;;;;;;;;;5073261;28;20053;-79
2021/10/19 03:32:12;;;;;;;28.73;17.70;;;;;;;;;;5075127;28;20122;-80
2021/10/19 03:34:39;;;;;;;37.58;17.88;;;;;;;;;;5076708;28;20053;-79
2021/10/19 03:37:08;;;;;;;29.80;17.58;;;;;;;;;;5076544;28;20375;-80
2021/10/19 03:39:34;;;;;;;30.60;16.95;;;;;;;;;;5076970;28;20056;-81
2021/10/19 03:42:01;;;;;;;31.33;17.60;;;;;;;;;;5077381;28;20044;-81
2021/10/19 03:44:30;;;;;;;36.25;17.95;;;;;;;;;;5076437;28;20094;-81
2021/10/19 03:46:57;;;;;;;28.10;17.38;;;;;;;;;;5077053;28;20071;-80
2021/10/19 03:49:23;;;;;;;34.75;17.45;;;;;;;;;;5075691;28;20048;-81
2021/10/19 03:51:52;;;;;;;35.83;18.55;;;;;;;;;;5076579;28;20080;-79
2021/10/19 03:54:19;;;;;;;32.08;17.70;;;;;;;;;;5076013;28;20103;-79
2021/10/19 03:56:46;;;;;;;33.45;17.95;;;;;;;;;;5076401;28;20076;-80
2021/10/19 03:59:13;;;;;;;31.50;17.50;;;;;;;;;;5078092;28;20058;-80
2021/10/19 04:01:40;;;;;;;34.75;17.33;;;;;;;;;;5079086;28;20134;-80
2021/10/19 04:04:10;;;;;;;32.30;18.38;;;;;;;;;;5080278;28;20056;-80
2021/10/19 04:06:37;;;;;;;34.38;19.00;;;;;;;;;;5079811;28;20063;-80
2021/10/19 04:09:04;;;;;;;36.60;18.35;;;;;;;;;;5096666;28;20463;-80
2021/10/19 04:11:31;;;;;;;31.63;18.08;;;;;;;;;;5089787;28;20193;-79
2021/10/19 04:13:58;;;;;;;32.08;17.70;;;;;;;;;;5092982;28;20058;-79
2021/10/19 04:16:25;;;;;;;31.98;16.88;;;;;;;;;;5077991;28;20048;-80
2021/10/19 04:18:52;;;;;;;31.52;18.33;;;;;;;;;;5077518;28;20056;-79
2021/10/19 04:21:18;;;;;;;31.52;17.75;;;;;;;;;;5094725;28;20052;-80
2021/10/19 04:23:46;;;;;;;33.10;18.42;;;;;;;;;;5076117;28;20416;-80
2021/10/19 04:26:13;;;;;;;36.33;18.02;;;;;;;;;;5076116;28;20121;-80
2021/10/19 04:28:42;;;;;;;37.00;20.00;;;;;;;;;;5093469;28;20056;-80
2021/10/19 04:31:08;;;;;;;35.83;18.63;;;;;;;;;;5074992;28;20098;-81
2021/10/19 04:33:35;;;;;;;34.70;18.35;;;;;;;;;;5075771;28;20109;-80
2021/10/19 04:36:05;;;;;;;34.47;18.30;;;;;;;;;;5075270;28;20233;-80
2021/10/19 04:38:38;;;;;;;32.13;18.17;;;;;;;;;;5076000;28;20421;-80
2021/10/19 04:41:08;;;;;;;39.20;19.67;;;;;;;;;;5074944;28;20477;-79
2021/10/19 04:43:34;;;;;;;32.47;18.42;;;;;;;;;;5076315;28;20075;-80
2021/10/19 04:46:01;;;;;;;36.70;18.63;;;;;;;;;;5079845;28;20074;-81
2021/10/19 04:48:31;;;;;;;30.92;18.80;;;;;;;;;;5081779;28;20092;-80
2021/10/19 04:50:58;;;;;;;38.90;19.80;;;;;;;;;;5075355;28;20075;-80
2021/10/19 04:53:24;;;;;;;37.92;19.52;;;;;;;;;;5077383;28;20052;-80
2021/10/19 04:55:52;;;;;;;35.28;19.27;;;;;;;;;;5078274;28;20067;-80
2021/10/19 04:58:25;;;;;;;33.67;18.63;;;;;;;;;;5068279;28;20049;-79
2021/10/19 05:00:52;;;;;;;33.75;20.25;;;;;;;;;;5089093;28;20071;-80
2021/10/19 05:03:25;;;;;;;36.38;18.13;;;;;;;;;;5063933;28;20060;-80
2021/10/19 05:05:52;;;;;;;34.65;19.80;;;;;;;;;;5074832;28;20057;-80
2021/10/19 05:08:19;;;;;;;36.92;20.40;;;;;;;;;;5055294;28;20053;-80
2021/10/19 05:10:47;;;;;;;38.13;20.33;;;;;;;;;;5084931;28;20112;-80
2021/10/19 05:13:14;;;;;;;37.58;19.80;;;;;;;;;;5086974;28;20058;-80
2021/10/19 05:15:40;;;;;;;40.22;20.40;;;;;;;;;;5092612;28;20230;-80
2021/10/19 05:18:08;;;;;;;41.63;19.65;;;;;;;;;;5076053;28;20068;-79
2021/10/19 05:20:35;;;;;;;38.80;19.67;;;;;;;;;;5071127;28;20052;-79
2021/10/19 05:23:01;;;;;;;36.20;19.20;;;;;;;;;;5071412;28;20057;-79
2021/10/19 05:25:28;;;;;;;39.63;20.60;;;;;;;;;;5053586;28;20068;-79
2021/10/19 05:27:55;;;;;;;37.08;19.85;;;;;;;;;;5057356;28;20134;-80
2021/10/19 05:30:22;;;;;;;31.30;18.17;;;;;;;;;;5068533;28;20075;-80
2021/10/19 05:32:50;;;;;;;37.80;20.80;;;;;;;;;;5052680;28;20068;-80
2021/10/19 05:35:16;;;;;;;37.13;19.33;;;;;;;;;;5073236;28;20186;-79
2021/10/19 05:37:44;;;;;;;40.00;21.23;;;;;;;;;;5089478;28;20063;-79
2021/10/19 05:40:11;;;;;;;43.53;20.85;;;;;;;;;;5075854;28;20055;-80
2021/10/19 05:42:44;;;;;;;39.65;20.75;;;;;;;;;;5060166;28;20080;-80
2021/10/19 05:45:11;;;;;;;38.05;19.70;;;;;;;;;;5083814;28;20146;-81
2021/10/19 05:47:41;;;;;;;39.55;20.05;;;;;;;;;;5055260;28;20052;-79
2021/10/19 05:50:10;;;;;;;43.70;21.85;;;;;;;;;;5055503;28;20108;-79
2021/10/19 05:52:37;;;;;;;42.90;20.92;;;;;;;;;;5060082;28;20122;-79
2021/10/19 05:55:04;;;;;;;34.80;20.20;;;;;;;;;;5074030;28;20105;-79
2021/10/19 05:57:30;;;;;;;38.70;20.20;;;;;;;;;;5071320;28;20056;-79
2021/10/19 05:59:57;;;;;;;40.47;20.20;;;;;;;;;;5059044;28;20045;-81
2021/10/19 06:02:31;;;;;;;33.22;20.02;;;;;;;;;;5052315;28;20084;-79
2021/10/19 06:04:58;;;;;;;33.97;19.38;;;;;;;;;;5051996;28;20057;-80
2021/10/19 06:07:25;;;;;;;33.25;20.40;;;;;;;;;;5068919;28;20136;-81
2021/10/19 06:09:52;;;;;;;32.10;18.67;;;;;;;;;;5074212;28;20103;-81
2021/10/19 06:12:19;;;;;;;29.45;17.15;;;;;;;;;;5059558;28;20057;-80
2021/10/19 06:14:46;;;;;;;32.28;18.20;;;;;;;;;;5050862;28;20051;-80
2021/10/19 06:17:19;;;;;;;29.17;18.60;;;;;;;;;;5053082;28;20103;-80
2021/10/19 06:19:49;;;;;;;31.65;17.67;;;;;;;;;;5052023;28;20048;-79
2021/10/19 06:22:16;;;;;;;33.03;18.23;;;;;;;;;;5051539;28;20148;-80
2021/10/19 06:24:42;;;;;;;37.97;20.25;;;;;;;;;;5051806;28;20140;-80
2021/10/19 06:27:09;;;;;;;36.58;19.80;;;;;;;;;;5068536;28;20176;-79
2021/10/19 06:29:36;;;;;;;33.63;19.05;;;;;;;;;;5069705;28;20341;-80
2021/10/19 06:32:03;;;;;;;32.55;18.45;;;;;;;;;;5068494;28;20072;-79
2021/10/19 06:34:30;;;;;;;31.60;19.58;;;;;;;;;;5070596;28;20401;-80
2021/10/19 06:36:57;;;;;;;34.60;18.75;;;;;;;;;;5059872;28;20041;-82
2021/10/19 06:39:25;;;;;;;32.33;19.55;;;;;;;;;;5050066;28;20338;-80
2021/10/19 06:41:51;;;;;;;24.90;16.80;;;;;;;;;;5054442;28;20214;-80
2021/10/19 06:44:18;;;;;;;30.13;18.25;;;;;;;;;;5049251;28;20326;-79
2021/10/19 06:47:05;;;;;;;29.25;17.23;;;;;;;;;;5051235;28;20056;-80
2021/10/19 06:49:32;;;;;;;29.35;17.55;;;;;;;;;;5046866;28;20441;-80
2021/10/19 06:51:58;;;;;;;29.67;17.67;;;;;;;;;;5049998;28;20084;-80
2021/10/19 06:54:39;;;;;;;28.73;16.95;;;;;;;;;;5049112;28;20052;-80
2021/10/19 06:57:06;;;;;;;30.17;18.55;;;;;;;;;;5051599;28;20059;-81
2021/10/19 06:59:34;;;;;;;28.20;17.13;;;;;;;;;;5069312;28;20110;-81
2021/10/19 07:02:01;;;;;;;26.48;17.02;;;;;;;;;;5072979;28;20109;-79
2021/10/19 07:04:28;;;;;;;25.50;16.67;;;;;;;;;;5071705;28;20352;-79
2021/10/19 07:06:55;;;;;;;29.30;18.40;;;;;;;;;;5072583;28;20312;-79
2021/10/19 07:09:25;;;;;;;30.30;17.48;;;;;;;;;;5092897;28;20420;-79
2021/10/19 07:11:52;;;;;;;28.75;16.83;;;;;;;;;;5091604;28;20048;-79
2021/10/19 07:14:19;;;;;;;27.23;16.92;;;;;;;;;;5098258;28;20056;-79
2021/10/19 07:16:45;;;;;;;24.35;15.77;;;;;;;;;;5103835;28;20111;-79
2021/10/19 07:19:15;;;;;;;22.25;15.95;;;;;;;;;;5072616;28;20055;-80
2021/10/19 07:21:43;;;;;;;25.58;15.88;;;;;;;;;;5089488;28;20048;-78
2021/10/19 07:24:10;;;;;;;25.33;15.75;;;;;;;;;;5070765;28;20207;-81
2021/10/19 07:26:37;;;;;;;23.80;15.27;;;;;;;;;;5072493;28;20208;-81
2021/10/19 07:29:04;;;;;;;23.65;14.93;;;;;;;;;;5088515;28;20062;-81
2021/10/19 07:31:31;;;;;;;26.98;16.02;;;;;;;;;;5071501;28;20051;-81
2021/10/19 07:33:59;;;;;;;23.73;15.75;;;;;;;;;;5073533;28;20439;-82
2021/10/19 07:36:26;;;;;;;23.60;15.63;;;;;;;;;;5075171;28;20048;-83
2021/10/19 07:38:53;;;;;;;25.10;15.43;;;;;;;;;;5062545;28;20064;-83
2021/10/19 07:41:25;;;;;;;30.95;15.70;;;;;;;;;;5072601;28;20056;-81
2021/10/19 07:43:52;;;;;;;22.35;15.20;;;;;;;;;;5083858;28;20058;-82
2021/10/19 07:46:18;;;;;;;22.85;15.00;;;;;;;;;;5079482;28;20074;-82
2021/10/19 07:48:48;;;;;;;26.95;15.27;;;;;;;;;;5071045;28;20164;-82
2021/10/19 07:51:15;;;;;;;24.95;15.27;;;;;;;;;;5071363;28;20180;-84
2021/10/19 07:53:50;;;;;;;23.88;15.40;;;;;;;;;;5075667;28;20062;-84
2021/10/19 07:56:17;;;;;;;27.10;14.88;;;;;;;;;;5053061;28;20060;-82
2021/10/19 07:58:44;;;;;;;22.90;14.45;;;;;;;;;;5085406;28;20060;-82
2021/10/19 08:01:11;;;;;;;25.15;15.18;;;;;;;;;;5054871;28;20123;-82
2021/10/19 08:03:39;;;;;;;27.45;14.10;;;;;;;;;;5086542;28;20416;-83
2021/10/19 08:06:11;;;;;;;22.42;14.10;;;;;;;;;;5091334;28;20115;-82
2021/10/19 08:08:41;;;;;;;23.98;15.10;;;;;;;;;;5094182;28;20424;-82
2021/10/19 08:11:15;;;;;;;23.77;14.73;;;;;;;;;;5075468;28;20155;-83
2021/10/19 08:13:41;;;;;;;23.35;14.82;;;;;;;;;;5072940;28;20178;-82
2021/10/19 08:16:08;;;;;;;23.27;13.98;;;;;;;;;;5073325;28;20214;-82
2021/10/19 08:18:37;;;;;;;24.10;13.75;;;;;;;;;;5073157;28;20048;-82
2021/10/19 08:21:06;;;;;;;23.45;14.65;;;;;;;;;;5094912;28;20131;-81
2021/10/19 08:23:33;;;;;;;27.98;13.45;;;;;;;;;;5106241;28;20043;-81
2021/10/19 08:25:59;;;;;;;22.27;14.27;;;;;;;;;;5104544;28;20249;-82
2021/10/19 08:28:31;;;;;;;21.33;13.90;;;;;;;;;;5077003;28;20113;-81
2021/10/19 08:30:58;;;;;;;25.33;14.57;;;;;;;;;;5075421;28;20055;-81
2021/10/19 08:33:25;;;;;;;24.63;14.52;;;;;;;;;;5097179;28;20097;-82
2021/10/19 08:35:53;;;;;;;22.08;14.07;;;;;;;;;;5106106;28;20063;-81
2021/10/19 08:38:20;;;;;;;23.92;14.90;;;;;;;;;;5097795;28;20322;-82
2021/10/19 08:40:47;;;;;;;23.02;13.48;;;;;;;;;;5074471;28;20071;-82
2021/10/19 08:43:20;;;;;;;22.35;13.50;;;;;;;;;;5074612;28;20109;-82
2021/10/19 08:45:48;;;;;;;21.08;13.30;;;;;;;;;;5071667;28;20074;-82
2021/10/19 08:48:19;;;;;;;22.30;13.02;;;;;;;;;;5077958;28;20457;-81
2021/10/19 08:51:00;;;;;;;18.90;12.55;;;;;;;;;;5061177;28;20049;-83
2021/10/19 08:53:27;;;;;;;17.13;11.38;;;;;;;;;;5061480;28;20060;-82
2021/10/19 08:55:58;;;;;;;18.40;11.75;;;;;;;;;;5056354;28;20138;-82
2021/10/19 08:58:24;;;;;;;18.20;12.07;;;;;;;;;;5049431;28;20059;-82
2021/10/19 09:01:00;;;;;;;19.63;11.57;;;;;;;;;;5059823;28;20060;-82
2021/10/19 09:03:28;;;;;;;17.33;12.27;;;;;;;;;;5073271;28;20048;-82
2021/10/19 09:05:54;;;;;;;17.98;11.98;;;;;;;;;;5073630;28;20052;-82
2021/10/19 09:08:24;;;;;;;19.63;11.93;;;;;;;;;;5069542;28;20486;-82
2021/10/19 09:10:54;;;;;;;19.05;12.20;;;;;;;;;;5069396;28;20214;-81
2021/10/19 09:13:21;;;;;;;21.77;13.13;;;;;;;;;;5071039;28;20076;-82
2021/10/19 09:15:50;;;;;;;17.48;12.25;;;;;;;;;;5070179;28;20052;-82
2021/10/19 09:18:21;;;;;;;15.73;11.38;;;;;;;;;;5072314;28;20063;-82
2021/10/19 09:20:49;;;;;;;19.85;11.88;;;;;;;;;;5072906;28;20052;-82
2021/10/19 09:23:21;;;;;;;16.30;12.02;;;;;;;;;;5073459;28;20125;-81
2021/10/19 09:25:53;;;;;;;16.60;11.50;;;;;;;;;;5062692;28;20131;-83
2021/10/19 09:28:34;;;;;;;20.45;12.73;;;;;;;;;;5053292;28;20049;-83
2021/10/19 09:31:01;;;;;;;22.08;14.00;;;;;;;;;;5053019;28;20498;-82
2021/10/19 09:33:28;;;;;;;19.00;11.77;;;;;;;;;;5051922;28;20118;-82
2021/10/19 09:36:02;;;;;;;24.52;13.82;;;;;;;;;;5054371;28;20053;-82
2021/10/19 09:38:30;;;;;;;19.27;12.35;;;;;;;;;;5059781;28;20318;-81
2021/10/19 09:41:00;;;;;;;20.92;13.25;;;;;;;;;;5054100;28;20052;-82
2021/10/19 09:43:29;;;;;;;25.52;13.75;;;;;;;;;;5052747;28;20073;-82
2021/10/19 09:46:02;;;;;;;20.02;12.77;;;;;;;;;;5058766;28;20112;-82
2021/10/19 09:48:32;;;;;;;18.85;12.05;;;;;;;;;;5053086;28;20142;-82
2021/10/19 09:51:02;;;;;;;21.13;13.50;;;;;;;;;;5062391;28;20095;-82
2021/10/19 09:53:29;;;;;;;18.98;12.60;;;;;;;;;;5067407;28;20304;-81
2021/10/19 09:55:56;;;;;;;18.20;12.85;;;;;;;;;;5058931;28;20049;-83
2021/10/19 09:58:25;;;;;;;23.33;13.05;;;;;;;;;;5049348;28;20128;-81
2021/10/19 10:00:54;;;;;;;22.30;13.10;;;;;;;;;;5046619;28;20080;-80
2021/10/19 10:03:27;;;;;;;18.25;12.00;;;;;;;;;;5048631;28;20067;-81
2021/10/19 10:05:56;;;;;;;17.90;11.77;;;;;;;;;;5050924;28;20095;-81
2021/10/19 10:08:23;;;;;;;19.02;11.63;;;;;;;;;;5053031;28;20048;-82
2021/10/19 10:10:54;;;;;;;18.10;11.50;;;;;;;;;;5066864;28;20059;-80
2021/10/19 10:13:23;;;;;;;21.42;12.55;;;;;;;;;;5072752;28;20056;-81
2021/10/19 10:15:52;;;;;;;17.10;12.38;;;;;;;;;;5068492;28;20056;-81
2021/10/19 10:18:30;;;;;;;17.45;12.05;;;;;;;;;;5066260;28;20037;-81
2021/10/19 10:21:24;;;;;;;19.40;12.23;;;;;;;;;;5081723;28;20110;-81
2021/10/19 10:24:22;;;;;;;21.92;12.77;;;;;;;;;;5049277;28;20538;-81
2021/10/19 10:26:49;;;;;;;18.38;12.15;;;;;;;;;;5036556;28;20413;-81
2021/10/19 10:29:18;;;;;;;15.00;11.57;;;;;;;;;;5063365;28;20102;-80
2021/10/19 10:31:49;;;;;;;16.55;12.73;;;;;;;;;;5060706;28;20087;-81
2021/10/19 10:34:29;;;;;;;16.92;12.20;;;;;;;;;;5065478;28;20063;-80
2021/10/19 10:37:07;;;;;;;24.95;13.20;;;;;;;;;;5069642;28;20049;-81
2021/10/19 10:39:38;;;;;;;18.77;13.40;;;;;;;;;;5063483;28;20130;-81
2021/10/19 10:42:11;;;;;;;21.20;13.48;;;;;;;;;;5048266;28;20067;-81
2021/10/19 10:44:40;;;;;;;24.23;13.85;;;;;;;;;;5047951;28;20193;-82
2021/10/19 10:47:08;;;;;;;20.17;14.85;;;;;;;;;;5048288;28;20103;-82
2021/10/19 10:49:35;;;;;;;22.52;13.98;;;;;;;;;;5059547;28;20045;-82
2021/10/19 10:52:12;;;;;;;22.13;14.57;;;;;;;;;;5061679;28;20209;-81
2021/10/19 10:54:49;;;;;;;21.15;15.65;;;;;;;;;;5060995;28;20098;-82
2021/10/19 10:57:27;;;;;;;28.85;17.02;;;;;;;;;;5067709;28;20083;-81
2021/10/19 11:00:03;;;;;;;;;;;;;;;;;;5073122;28;20099;-82
2021/10/19 11:02:30;;;;;;;24.40;17.57;;;;;;;;;;5054680;28;20139;-81
2021/10/19 11:04:59;;;;;;;26.67;17.00;;;;;;;;;;5054223;28;20129;-81
2021/10/19 11:07:31;;;;;;;23.48;17.13;;;;;;;;;;5069545;28;20445;-81
2021/10/19 11:10:05;;;;;;;28.33;18.13;;;;;;;;;;5069149;28;20264;-81
2021/10/19 11:12:34;;;;;;;25.25;18.20;;;;;;;;;;5070019;28;20545;-81
2021/10/19 11:15:11;;;;;;;26.42;18.25;;;;;;;;;;5066826;28;20056;-81
2021/10/19 11:17:42;;;;;;;28.52;18.98;;;;;;;;;;5067196;28;20106;-81
2021/10/19 11:20:09;;;;;;;26.67;18.77;;;;;;;;;;5055095;28;20312;-82
2021/10/19 11:22:37;;;;;;;28.00;19.10;;;;;;;;;;5049334;28;20304;-81
2021/10/19 11:25:11;;;;;;;30.80;20.02;;;;;;;;;;5049538;28;20075;-82
2021/10/19 11:27:38;;;;;;;26.40;18.38;;;;;;;;;;5049603;28;20049;-82
2021/10/19 11:30:08;;;;;;;27.60;19.27;;;;;;;;;;5049357;28;20076;-80
2021/10/19 11:32:37;;;;;;;26.45;18.58;;;;;;;;;;5046489;28;20049;-80
2021/10/19 11:35:05;;;;;;;32.47;19.83;;;;;;;;;;5047391;28;20088;-80
2021/10/19 11:37:32;;;;;;;32.05;20.13;;;;;;;;;;5045039;28;20328;-82
2021/10/19 11:40:12;;;;;;;29.73;20.42;;;;;;;;;;5051013;28;20448;-82
2021/10/19 11:42:48;;;;;;;;;;;;;;;;;;5058670;28;20075;-82
2021/10/19 11:45:16;;;;;;;37.42;23.35;;;;;;;;;;5063983;28;19913;-81
2021/10/19 11:47:50;;;;;;;35.55;23.85;;;;;;;;;;5085017;28;20056;-81
2021/10/19 11:50:25;;;;;;;31.42;22.63;;;;;;;;;;5076560;28;20131;-83
2021/10/19 11:53:03;;;;;;;36.63;23.35;;;;;;;;;;5066974;28;20051;-81
2021/10/19 11:55:38;;;;;;;38.65;24.27;;;;;;;;;;5056006;28;20048;-81
2021/10/19 11:58:12;;;;;;;32.90;23.75;;;;;;;;;;5073723;28;20090;-80
2021/10/19 12:00:39;;;;;;;31.10;21.63;;;;;;;;;;5075715;28;20194;-81
2021/10/19 12:03:10;;;;;;;29.98;21.95;;;;;;;;;;5045570;28;20057;-80
2021/10/19 12:05:37;;;;;;;33.53;21.52;;;;;;;;;;5046281;28;20148;-81
2021/10/19 12:08:04;;;;;;;28.25;20.55;;;;;;;;;;5043802;28;20395;-81
2021/10/19 12:10:46;;;;;;;29.85;21.20;;;;;;;;;;5044627;28;20073;-81
2021/10/19 12:13:17;;;;;;;27.20;18.85;;;;;;;;;;5043793;28;20360;-82
2021/10/19 12:15:53;;;;;;;26.67;18.92;;;;;;;;;;5050761;28;20064;-81
2021/10/19 12:18:20;;;;;;;26.58;19.30;;;;;;;;;;5054617;28;20102;-81
2021/10/19 12:20:53;;;;;;;32.58;19.70;;;;;;;;;;5067071;28;20076;-81
2021/10/19 12:23:19;;;;;;;29.60;21.45;;;;;;;;;;5048379;28;20057;-81
2021/10/19 12:25:47;;;;;;;29.25;19.63;;;;;;;;;;5046583;28;20056;-81
2021/10/19 12:28:15;;;;;;;27.02;19.52;;;;;;;;;;5061849;28;20045;-81
2021/10/19 12:30:51;;;;;;;28.38;19.38;;;;;;;;;;5054182;28;20420;-82
2021/10/19 12:33:20;;;;;;;30.77;19.60;;;;;;;;;;5057299;28;20063;-80
2021/10/19 12:36:11;;;;;;;38.42;21.02;;;;;;;;;;5062720;28;20082;-81
2021/10/19 12:38:39;;;;;;;30.08;21.45;;;;;;;;;;5047513;28;20122;-81
2021/10/19 12:41:17;;;;;;;31.98;22.00;;;;;;;;;;5061755;28;20264;-81
2021/10/19 12:43:47;;;;;;;31.88;21.80;;;;;;;;;;5055539;28;20118;-81
2021/10/19 12:46:20;;;;;;;29.20;21.83;;;;;;;;;;5047636;28;20190;-81
2021/10/19 12:48:47;;;;;;;30.15;22.15;;;;;;;;;;5051972;28;20044;-81
2021/10/19 12:51:18;;;;;;;33.33;22.80;;;;;;;;;;5062750;28;20097;-80
2021/10/19 12:53:55;;;;;;;32.25;22.27;;;;;;;;;;5054349;28;20172;-81
2021/10/19 12:56:23;;;;;;;33.17;21.42;;;;;;;;;;5033456;28;20171;-81
2021/10/19 12:58:53;;;;;;;29.20;21.38;;;;;;;;;;5047450;28;20053;-80
2021/10/19 13:01:25;;;;;;;32.70;20.83;;;;;;;;;;5053953;28;20048;-81
2021/10/19 13:03:56;;;;;;;29.05;20.77;;;;;;;;;;5062333;28;20076;-81
2021/10/19 13:06:28;;;;;;;29.70;21.15;;;;;;;;;;5063125;28;20056;-80
2021/10/19 13:08:59;;;;;;;27.27;20.85;;;;;;;;;;5050818;28;20084;-82
2021/10/19 13:11:25;;;;;;;27.48;20.50;;;;;;;;;;5050856;28;20399;-82
2021/10/19 13:13:52;;;;;;;29.13;19.85;;;;;;;;;;5075610;28;20040;-82
2021/10/19 13:16:25;;;;;;;28.83;18.88;;;;;;;;;;5078480;28;20044;-82
2021/10/19 13:18:52;;;;;;;27.38;19.92;;;;;;;;;;5073288;28;20619;-81
2021/10/19 13:21:27;;;;;;;27.70;19.57;;;;;;;;;;5068508;28;20386;-83
2021/10/19 13:23:54;;;;;;;25.45;19.17;;;;;;;;;;5068493;28;20494;-82
2021/10/19 13:26:21;;;;;;;26.67;18.83;;;;;;;;;;5056842;28;20242;-82
2021/10/19 13:28:48;;;;;;;27.52;20.45;;;;;;;;;;5057266;28;20053;-83
2021/10/19 13:31:18;;;;;;;27.38;19.42;;;;;;;;;;5070093;28;20155;-83
2021/10/19 13:33:48;;;;;;;29.80;21.25;;;;;;;;;;5072620;28;20424;-81
2021/10/19 13:36:15;;;;;;;31.88;20.92;;;;;;;;;;5064359;28;20118;-83
2021/10/19 13:38:45;;;;;;;29.65;20.10;;;;;;;;;;5064228;28;20227;-84
2021/10/19 13:41:15;;;;;;;24.75;18.20;;;;;;;;;;5066611;28;20194;-82
2021/10/19 13:43:45;;;;;;;25.92;18.20;;;;;;;;;;5065687;28;20049;-82
2021/10/19 13:46:21;;;;;;;23.65;18.13;;;;;;;;;;5048419;28;20429;-81
2021/10/19 13:48:48;;;;;;;22.48;17.75;;;;;;;;;;5047622;28;20366;-82
2021/10/19 13:51:18;;;;;;;27.40;19.38;;;;;;;;;;5048308;28;20466;-84
2021/10/19 13:53:45;;;;;;;31.08;21.85;;;;;;;;;;5047314;28;20437;-85
2021/10/19 13:56:12;;;;;;;30.90;24.33;;;;;;;;;;5056266;28;20048;-84
2021/10/19 13:58:40;;;;;;;32.08;23.13;;;;;;;;;;5067831;28;20079;-85
2021/10/19 14:01:09;;;;;;;34.05;25.25;;;;;;;;;;5064882;28;20417;-85
2021/10/19 14:03:36;;;;;;;34.22;24.77;;;;;;;;;;5066036;28;20338;-85
2021/10/19 14:06:03;;;;;;;33.28;25.23;;;;;;;;;;5052594;28;20053;-85
2021/10/19 14:08:30;;;;;;;32.70;25.00;;;;;;;;;;5052966;28;20045;-84
2021/10/19 14:11:00;;;;;;;31.50;24.92;;;;;;;;;;5055389;28;20053;-85
2021/10/19 14:13:27;;;;;;;29.55;22.95;;;;;;;;;;5061103;28;20143;-86
2021/10/19 14:15:55;;;;;;;33.40;24.15;;;;;;;;;;5054960;28;20098;-85
2021/10/19 14:18:25;;;;;;;29.65;24.48;;;;;;;;;;5052906;28;20053;-84
2021/10/19 14:20:55;;;;;;;30.88;23.40;;;;;;;;;;5052018;28;20065;-84
2021/10/19 14:23:22;;;;;;;30.70;23.98;;;;;;;;;;5072433;28;20060;-85
2021/10/19 14:25:49;;;;;;;31.30;23.25;;;;;;;;;;5072758;28;20060;-84
2021/10/19 14:28:16;;;;;;;26.77;23.02;;;;;;;;;;5071302;28;20044;-84